createdAt,value
2023-04-01T00:01:51.670Z,100.00
2023-04-01T00:04:19.263Z,100.00
2023-04-01T00:06:48.292Z,100.00
2023-04-01T00:09:15.916Z,100.00
2023-04-01T00:11:43.433Z,100.00
2023-04-01T00:14:11.471Z,100.00
2023-04-01T00:16:38.732Z,100.00
2023-04-01T00:19:06.222Z,100.00
2023-04-01T00:21:33.453Z,100.00
2023-04-01T00:24:01.299Z,100.00
2023-04-01T00:26:28.815Z,100.00
2023-04-01T00:28:56.216Z,100.00
2023-04-01T00:31:23.411Z,100.00
2023-04-01T00:33:52.685Z,100.00
2023-04-01T00:36:22.630Z,100.00
2023-04-01T00:38:51.406Z,100.00
2023-04-01T00:41:20.427Z,100.00
2023-04-01T00:43:49.595Z,100.00
2023-04-01T00:46:17.094Z,100.00
2023-04-01T00:48:49.911Z,100.00
2023-04-01T00:51:21.692Z,100.00
2023-04-01T00:53:51.407Z,100.00
2023-04-01T00:56:23.352Z,100.00
2023-04-01T00:58:53.360Z,100.00
2023-04-01T01:01:23.427Z,100.00
2023-04-01T01:03:51.158Z,100.00
2023-04-01T01:06:40.216Z,100.00
2023-04-01T01:09:18.056Z,100.00
2023-04-01T01:11:55.995Z,100.00
2023-04-01T01:14:37.330Z,100.00
2023-04-01T01:17:15.527Z,100.00
2023-04-01T01:19:50.991Z,100.00
2023-04-01T01:22:36.871Z,100.00
2023-04-01T01:25:35.134Z,100.00
2023-04-01T01:28:36.352Z,100.00
2023-04-01T01:31:34.318Z,100.00
2023-04-01T01:34:26.021Z,100.00
2023-04-01T01:37:00.596Z,100.00
2023-04-01T01:39:28.929Z,100.00
2023-04-01T01:42:03.372Z,100.00
2023-04-01T01:44:31.662Z,100.00
2023-04-01T01:46:59.651Z,100.00
2023-04-01T01:49:31.118Z,100.00
2023-04-01T01:51:59.003Z,100.00
2023-04-01T01:54:26.212Z,100.00
2023-04-01T01:57:04.327Z,100.00
2023-04-01T01:59:34.443Z,100.00
2023-04-01T02:02:02.525Z,100.00
2023-04-01T02:04:30.330Z,100.00
2023-04-01T02:07:01.864Z,100.00
2023-04-01T02:09:30.467Z,100.00
2023-04-01T02:12:05.367Z,100.00
2023-04-01T02:15:20.591Z,100.00
2023-04-01T02:17:49.929Z,100.00
2023-04-01T02:20:19.967Z,100.00
2023-04-01T02:22:52.954Z,100.00
2023-04-01T02:25:24.886Z,100.00
2023-04-01T02:27:52.915Z,100.00
2023-04-01T02:30:20.404Z,100.00
2023-04-01T02:32:48.350Z,100.00
2023-04-01T02:35:17.159Z,100.00
2023-04-01T02:37:45.461Z,100.00
2023-04-01T02:40:14.198Z,100.00
2023-04-01T02:42:41.726Z,100.00
2023-04-01T02:45:09.469Z,100.00
2023-04-01T02:47:37.007Z,100.00
2023-04-01T02:50:04.769Z,100.00
2023-04-01T02:52:32.223Z,100.00
2023-04-01T02:55:00.119Z,100.00
2023-04-01T02:57:27.492Z,100.00
2023-04-01T02:59:54.778Z,100.00
2023-04-01T03:02:22.317Z,100.00
2023-04-01T03:04:49.615Z,100.00
2023-04-01T03:07:17.205Z,100.00
2023-04-01T03:09:44.683Z,100.00
2023-04-01T03:12:11.904Z,100.00
2023-04-01T03:14:40.795Z,100.00
2023-04-01T03:17:08.274Z,100.00
2023-04-01T03:19:35.592Z,100.00
2023-04-01T03:22:04.888Z,100.00
2023-04-01T03:24:32.341Z,100.00
2023-04-01T03:26:59.536Z,100.00
2023-04-01T03:29:26.819Z,100.00
2023-04-01T03:31:54.500Z,100.00
2023-04-01T03:34:21.697Z,100.00
2023-04-01T03:36:48.875Z,100.00
2023-04-01T03:39:19.650Z,100.00
2023-04-01T03:41:47.139Z,100.00
2023-04-01T03:44:14.469Z,100.00
2023-04-01T03:46:42.700Z,100.00
2023-04-01T03:49:12.591Z,100.00
2023-04-01T03:51:41.079Z,100.00
2023-04-01T03:54:09.846Z,100.00
2023-04-01T03:56:37.852Z,100.00
2023-04-01T03:59:07.953Z,100.00
2023-04-01T04:01:35.853Z,100.00
2023-04-01T04:04:03.871Z,100.00
2023-04-01T04:06:31.087Z,100.00
2023-04-01T04:08:58.396Z,100.00
2023-04-01T04:11:26.858Z,100.00
2023-04-01T04:13:55.546Z,100.00
2023-04-01T04:16:23.938Z,100.00
2023-04-01T04:18:52.473Z,100.00
2023-04-01T04:21:19.645Z,100.00
2023-04-01T04:23:47.147Z,100.00
2023-04-01T04:26:16.246Z,100.00
2023-04-01T04:28:45.090Z,100.00
2023-04-01T04:31:12.896Z,100.00
2023-04-01T04:33:41.796Z,100.00
2023-04-01T04:36:09.312Z,100.00
2023-04-01T04:38:36.733Z,100.00
2023-04-01T04:41:04.404Z,100.00
2023-04-01T04:43:31.730Z,100.00
2023-04-01T04:46:00.541Z,100.00
2023-04-01T04:48:28.060Z,100.00
2023-04-01T04:50:55.485Z,100.00
2023-04-01T04:53:23.379Z,100.00
2023-04-01T04:55:51.218Z,100.00
2023-04-01T04:58:19.314Z,100.00
2023-04-01T05:00:47.033Z,100.00
2023-04-01T05:03:17.429Z,100.00
2023-04-01T05:05:53.486Z,100.00
2023-04-01T05:08:21.096Z,99.64
2023-04-01T05:10:48.496Z,99.54
2023-04-01T05:13:15.844Z,99.47
2023-04-01T05:15:43.673Z,99.28
2023-04-01T05:18:11.112Z,99.01
2023-04-01T05:20:38.327Z,98.16
2023-04-01T05:23:05.714Z,97.11
2023-04-01T05:25:33.133Z,96.00
2023-04-01T05:28:00.464Z,96.02
2023-04-01T05:30:28.225Z,96.16
2023-04-01T05:32:55.959Z,95.62
2023-04-01T05:35:23.257Z,94.78
2023-04-01T05:37:50.831Z,93.76
2023-04-01T05:40:18.331Z,93.84
2023-04-01T05:42:45.579Z,93.12
2023-04-01T05:45:16.399Z,91.52
2023-04-01T05:47:45.073Z,91.72
2023-04-01T05:50:12.957Z,91.18
2023-04-01T05:52:40.305Z,91.80
2023-04-01T05:55:08.128Z,92.02
2023-04-01T05:57:35.929Z,91.42
2023-04-01T06:00:05.804Z,92.52
2023-04-01T06:02:40.221Z,92.46
2023-04-01T06:05:19.618Z,91.77
2023-04-01T06:07:47.269Z,92.21
2023-04-01T06:10:20.528Z,91.71
2023-04-01T06:13:30.098Z,91.68
2023-04-01T06:16:26.068Z,91.02
2023-04-01T06:19:33.900Z,90.82
2023-04-01T06:22:40.181Z,91.54
2023-04-01T06:25:22.631Z,91.04
2023-04-01T06:27:59.678Z,91.53
2023-04-01T06:30:36.093Z,90.84
2023-04-01T06:33:44.460Z,91.60
2023-04-01T06:36:33.506Z,91.39
2023-04-01T06:39:04.304Z,90.27
2023-04-01T06:42:01.137Z,90.84
2023-04-01T06:44:39.036Z,90.14
2023-04-01T06:47:24.000Z,89.35
2023-04-01T06:50:14.984Z,89.71
2023-04-01T06:53:12.224Z,89.03
2023-04-01T06:55:54.940Z,87.73
2023-04-01T06:58:26.488Z,87.31
2023-04-01T07:01:05.067Z,87.92
2023-04-01T07:03:45.507Z,87.79
2023-04-01T07:06:22.341Z,87.91
2023-04-01T07:08:51.083Z,87.30
2023-04-01T07:11:27.480Z,88.05
2023-04-01T07:14:03.930Z,86.01
2023-04-01T07:16:34.994Z,86.03
2023-04-01T07:19:13.753Z,87.31
2023-04-01T07:22:00.131Z,86.71
2023-04-01T07:24:37.867Z,83.73
2023-04-01T07:27:11.313Z,84.85
2023-04-01T07:29:38.831Z,85.93
2023-04-01T07:32:13.447Z,83.09
2023-04-01T07:35:02.166Z,84.80
2023-04-01T07:37:46.761Z,84.80
2023-04-01T07:40:23.100Z,83.64
2023-04-01T07:43:09.413Z,82.50
2023-04-01T07:45:39.186Z,80.97
2023-04-01T07:48:26.394Z,83.28
2023-04-01T07:51:11.171Z,81.05
2023-04-01T07:53:50.483Z,81.76
2023-04-01T07:56:56.947Z,77.47
2023-04-01T07:59:38.585Z,77.44
2023-04-01T08:02:29.407Z,80.19
2023-04-01T08:05:15.972Z,75.66
2023-04-01T08:07:46.379Z,74.42
2023-04-01T08:10:26.968Z,75.67
2023-04-01T08:13:22.281Z,73.65
2023-04-01T08:16:00.659Z,74.43
2023-04-01T08:18:59.038Z,75.55
2023-04-01T08:21:29.846Z,73.47
2023-04-01T08:23:59.187Z,72.83
2023-04-01T08:26:27.157Z,73.24
2023-04-01T08:29:10.422Z,72.21
2023-04-01T08:32:01.549Z,72.91
2023-04-01T08:34:34.956Z,73.39
2023-04-01T08:37:07.071Z,73.13
2023-04-01T08:40:17.155Z,71.67
2023-04-01T08:43:33.965Z,71.66
2023-04-01T08:46:24.817Z,70.50
2023-04-01T08:49:26.355Z,73.65
2023-04-01T08:51:53.532Z,70.13
2023-04-01T08:54:44.909Z,70.36
2023-04-01T08:57:14.433Z,71.42
2023-04-01T08:59:46.713Z,73.03
2023-04-01T09:02:46.616Z,72.54
2023-04-01T09:05:36.046Z,72.64
2023-04-01T09:08:34.294Z,70.34
2023-04-01T09:11:18.443Z,72.35
2023-04-01T09:14:02.638Z,71.84
2023-04-01T09:16:48.491Z,70.14
2023-04-01T09:19:47.574Z,71.90
2023-04-01T09:22:39.742Z,70.05
2023-04-01T09:25:24.008Z,71.69
2023-04-01T09:27:57.429Z,70.53
2023-04-01T09:30:58.455Z,70.77
2023-04-01T09:33:34.976Z,69.91
2023-04-01T09:36:06.165Z,70.38
2023-04-01T09:38:52.096Z,71.66
2023-04-01T09:41:32.567Z,70.61
2023-04-01T09:44:59.180Z,68.73
2023-04-01T09:47:44.163Z,67.76
2023-04-01T09:50:18.122Z,66.89
2023-04-01T09:53:03.355Z,67.68
2023-04-01T09:56:18.057Z,68.71
2023-04-01T09:59:22.681Z,67.49
2023-04-01T10:02:15.043Z,66.81
2023-04-01T10:04:58.413Z,67.30
2023-04-01T10:07:44.106Z,68.12
2023-04-01T10:10:39.462Z,67.48
2023-04-01T10:13:29.493Z,66.82
2023-04-01T10:16:34.816Z,67.62
2023-04-01T10:19:16.925Z,67.01
2023-04-01T10:22:06.358Z,67.51
2023-04-01T10:24:53.067Z,67.19
2023-04-01T10:27:38.943Z,68.13
2023-04-01T10:30:47.862Z,67.49
2023-04-01T10:33:41.688Z,67.47
2023-04-01T10:36:14.977Z,68.03
2023-04-01T10:39:08.907Z,66.39
2023-04-01T10:41:42.204Z,67.96
2023-04-01T10:44:30.476Z,66.21
2023-04-01T10:46:58.417Z,66.54
2023-04-01T10:49:48.945Z,66.53
2023-04-01T10:52:30.015Z,65.58
2023-04-01T10:55:25.872Z,66.05
2023-04-01T10:58:20.855Z,67.33
2023-04-01T11:01:04.172Z,64.87
2023-04-01T11:04:07.856Z,66.04
2023-04-01T11:07:03.381Z,64.60
2023-04-01T11:09:57.285Z,64.74
2023-04-01T11:12:30.863Z,66.78
2023-04-01T11:15:37.732Z,64.70
2023-04-01T11:18:26.313Z,62.51
2023-04-01T11:21:32.321Z,62.09
2023-04-01T11:24:18.523Z,63.87
2023-04-01T11:26:54.732Z,63.43
2023-04-01T11:30:05.348Z,64.49
2023-04-01T11:33:00.285Z,62.74
2023-04-01T11:35:44.129Z,60.40
2023-04-01T11:38:24.480Z,61.46
2023-04-01T11:40:58.148Z,60.78
2023-04-01T11:43:34.395Z,61.57
2023-04-01T11:46:13.175Z,63.88
2023-04-01T11:49:03.889Z,61.46
2023-04-01T11:51:44.454Z,61.54
2023-04-01T11:54:45.496Z,61.62
2023-04-01T11:57:37.114Z,62.62
2023-04-01T12:00:04.239Z,62.20
2023-04-01T12:03:35.067Z,62.65
2023-04-01T12:06:08.265Z,62.03
2023-04-01T12:08:41.005Z,60.61
2023-04-01T12:11:37.717Z,60.20
2023-04-01T12:14:31.643Z,60.46
2023-04-01T12:17:28.724Z,62.46
2023-04-01T12:20:17.161Z,60.33
2023-04-01T12:22:47.551Z,59.89
2023-04-01T12:25:48.742Z,60.58
2023-04-01T12:28:19.099Z,62.79
2023-04-01T12:31:18.888Z,58.46
2023-04-01T12:33:58.764Z,59.24
2023-04-01T12:36:44.184Z,58.79
2023-04-01T12:39:50.704Z,57.28
2023-04-01T12:42:20.914Z,58.29
2023-04-01T12:44:55.847Z,59.41
2023-04-01T12:47:29.148Z,57.62
2023-04-01T12:50:17.886Z,59.57
2023-04-01T12:53:06.948Z,60.21
2023-04-01T12:55:41.082Z,59.42
2023-04-01T12:58:26.882Z,60.15
2023-04-01T13:01:01.432Z,59.59
2023-04-01T13:03:28.433Z,61.57
2023-04-01T13:06:01.862Z,61.15
2023-04-01T13:08:56.300Z,60.99
2023-04-01T13:11:38.062Z,60.81
2023-04-01T13:14:31.401Z,60.77
2023-04-01T13:17:21.879Z,60.67
2023-04-01T13:20:14.340Z,60.54
2023-04-01T13:23:00.096Z,60.85
2023-04-01T13:26:18.304Z,61.02
2023-04-01T13:28:58.229Z,59.37
2023-04-01T13:31:39.787Z,57.36
2023-04-01T13:34:19.167Z,58.06
2023-04-01T13:37:00.681Z,57.51
2023-04-01T13:39:55.064Z,59.63
2023-04-01T13:42:29.851Z,57.95
2023-04-01T13:45:12.265Z,58.49
2023-04-01T13:48:00.675Z,57.10
2023-04-01T13:50:34.563Z,58.42
2023-04-01T13:53:01.958Z,58.67
2023-04-01T13:55:32.780Z,59.12
2023-04-01T13:58:11.421Z,58.47
2023-04-01T14:01:08.693Z,59.89
2023-04-01T14:03:56.089Z,59.17
2023-04-01T14:06:34.908Z,59.25
2023-04-01T14:09:38.770Z,59.41
2023-04-01T14:12:14.152Z,58.81
2023-04-01T14:15:12.396Z,60.39
2023-04-01T14:17:59.204Z,63.64
2023-04-01T14:21:04.908Z,66.73
2023-04-01T14:23:46.848Z,66.83
2023-04-01T14:26:44.257Z,67.02
2023-04-01T14:29:36.540Z,67.95
2023-04-01T14:32:22.337Z,66.58
2023-04-01T14:35:11.666Z,66.03
2023-04-01T14:38:07.317Z,66.85
2023-04-01T14:40:55.342Z,67.06
2023-04-01T14:43:35.783Z,66.09
2023-04-01T14:46:18.704Z,64.27
2023-04-01T14:48:54.989Z,63.03
2023-04-01T14:51:35.989Z,63.23
2023-04-01T14:54:12.612Z,62.26
2023-04-01T14:56:51.715Z,60.97
2023-04-01T14:59:22.150Z,60.95
2023-04-01T15:01:52.041Z,60.90
2023-04-01T15:04:25.850Z,59.39
2023-04-01T15:07:01.698Z,59.14
2023-04-01T15:10:06.801Z,59.04
2023-04-01T15:12:58.334Z,59.72
2023-04-01T15:15:37.941Z,59.30
2023-04-01T15:18:11.375Z,57.85
2023-04-01T15:20:57.113Z,57.90
2023-04-01T15:23:33.222Z,59.42
2023-04-01T15:26:09.678Z,58.92
2023-04-01T15:28:42.576Z,58.69
2023-04-01T15:31:38.272Z,57.47
2023-04-01T15:34:27.000Z,55.56
2023-04-01T15:37:21.709Z,54.82
2023-04-01T15:39:57.780Z,56.25
2023-04-01T15:42:29.707Z,54.48
2023-04-01T15:45:02.678Z,52.74
2023-04-01T15:47:41.135Z,53.51
2023-04-01T15:50:11.608Z,52.84
2023-04-01T15:52:51.482Z,52.57
2023-04-01T15:55:40.671Z,53.31
2023-04-01T15:58:41.047Z,53.27
2023-04-01T16:01:32.866Z,52.89
2023-04-01T16:04:28.489Z,53.80
2023-04-01T16:07:29.461Z,54.00
2023-04-01T16:10:33.195Z,52.08
2023-04-01T16:13:19.837Z,53.19
2023-04-01T16:16:08.605Z,52.68
2023-04-01T16:18:35.777Z,52.90
2023-04-01T16:21:13.265Z,53.56
2023-04-01T16:23:53.999Z,52.71
2023-04-01T16:27:09.599Z,53.23
2023-04-01T16:29:43.207Z,54.52
2023-04-01T16:32:38.508Z,53.49
2023-04-01T16:35:33.363Z,53.78
2023-04-01T16:38:02.508Z,54.04
2023-04-01T16:40:46.298Z,54.15
2023-04-01T16:43:22.125Z,53.89
2023-04-01T16:46:07.526Z,53.88
2023-04-01T16:49:12.195Z,54.64
2023-04-01T16:51:39.229Z,54.82
2023-04-01T16:54:14.700Z,54.42
2023-04-01T16:57:09.880Z,55.10
2023-04-01T16:59:58.823Z,55.05
2023-04-01T17:02:39.588Z,55.71
2023-04-01T17:05:12.939Z,55.18
2023-04-01T17:07:50.371Z,55.34
2023-04-01T17:10:33.925Z,55.85
2023-04-01T17:13:07.246Z,55.85
2023-04-01T17:15:54.848Z,57.22
2023-04-01T17:18:59.878Z,58.54
2023-04-01T17:21:48.876Z,57.22
2023-04-01T17:24:49.618Z,62.31
2023-04-01T17:27:26.456Z,62.19
2023-04-01T17:30:02.740Z,65.18
2023-04-01T17:32:49.058Z,65.53
2023-04-01T17:35:41.433Z,67.98
2023-04-01T17:38:42.020Z,67.01
2023-04-01T17:41:33.925Z,67.07
2023-04-01T17:44:13.451Z,67.91
2023-04-01T17:46:46.596Z,68.28
2023-04-01T17:49:26.204Z,69.87
2023-04-01T17:51:59.256Z,69.84
2023-04-01T17:54:40.965Z,69.72
2023-04-01T17:57:52.943Z,70.03
2023-04-01T18:00:30.113Z,70.50
2023-04-01T18:03:24.627Z,71.42
2023-04-01T18:06:01.727Z,71.83
2023-04-01T18:08:57.024Z,72.21
2023-04-01T18:11:42.351Z,73.00
2023-04-01T18:14:19.084Z,74.00
2023-04-01T18:17:21.395Z,73.83
2023-04-01T18:20:01.202Z,73.89
2023-04-01T18:22:53.828Z,73.67
2023-04-01T18:25:45.212Z,74.22
2023-04-01T18:28:20.443Z,73.49
2023-04-01T18:31:21.764Z,73.46
2023-04-01T18:34:08.751Z,74.35
2023-04-01T18:36:46.084Z,75.06
2023-04-01T18:39:16.307Z,75.49
2023-04-01T18:42:11.585Z,75.03
2023-04-01T18:44:51.603Z,75.02
2023-04-01T18:47:21.828Z,76.06
2023-04-01T18:50:01.621Z,76.95
2023-04-01T18:52:41.326Z,77.44
2023-04-01T18:55:08.811Z,77.47
2023-04-01T18:58:07.698Z,77.05
2023-04-01T19:00:41.422Z,77.32
2023-04-01T19:03:16.923Z,77.01
2023-04-01T19:05:47.544Z,76.38
2023-04-01T19:08:29.423Z,75.72
2023-04-01T19:10:56.610Z,75.67
2023-04-01T19:13:32.535Z,75.56
2023-04-01T19:16:30.364Z,74.63
2023-04-01T19:19:42.899Z,74.34
2023-04-01T19:22:42.247Z,73.70
2023-04-01T19:25:18.578Z,72.98
2023-04-01T19:27:53.565Z,73.02
2023-04-01T19:30:37.602Z,73.26
2023-04-01T19:33:14.919Z,73.48
2023-04-01T19:35:43.243Z,73.76
2023-04-01T19:38:22.610Z,73.66
2023-04-01T19:41:01.958Z,73.51
2023-04-01T19:43:50.798Z,73.74
2023-04-01T19:46:27.267Z,73.71
2023-04-01T19:49:07.456Z,73.93
2023-04-01T19:51:56.473Z,74.17
2023-04-01T19:54:39.404Z,74.85
2023-04-01T19:57:28.883Z,75.24
2023-04-01T20:00:08.292Z,75.51
2023-04-01T20:02:45.175Z,75.62
2023-04-01T20:05:27.865Z,75.83
2023-04-01T20:08:09.428Z,75.57
2023-04-01T20:10:43.803Z,75.67
2023-04-01T20:13:17.045Z,76.14
2023-04-01T20:15:47.087Z,76.21
2023-04-01T20:18:18.297Z,76.81
2023-04-01T20:21:01.818Z,76.95
2023-04-01T20:23:46.111Z,77.17
2023-04-01T20:26:14.256Z,76.95
2023-04-01T20:29:18.927Z,77.15
2023-04-01T20:32:05.604Z,77.51
2023-04-01T20:34:33.210Z,77.52
2023-04-01T20:37:20.793Z,78.07
2023-04-01T20:39:56.524Z,77.94
2023-04-01T20:42:23.543Z,78.27
2023-04-01T20:45:17.228Z,78.72
2023-04-01T20:47:47.536Z,78.90
2023-04-01T20:50:36.273Z,78.55
2023-04-01T20:53:10.379Z,78.44
2023-04-01T20:55:53.053Z,78.38
2023-04-01T20:58:30.618Z,78.25
2023-04-01T21:01:20.582Z,78.58
2023-04-01T21:03:58.028Z,78.77
2023-04-01T21:07:06.608Z,78.17
2023-04-01T21:09:46.409Z,77.60
2023-04-01T21:12:32.075Z,77.64
2023-04-01T21:15:17.438Z,76.97
2023-04-01T21:18:10.055Z,76.99
2023-04-01T21:20:50.034Z,76.83
2023-04-01T21:23:39.394Z,76.58
2023-04-01T21:26:31.181Z,76.03
2023-04-01T21:29:31.587Z,75.63
2023-04-01T21:32:07.702Z,75.60
2023-04-01T21:34:52.800Z,75.73
2023-04-01T21:37:28.252Z,75.49
2023-04-01T21:40:05.080Z,75.25
2023-04-01T21:42:50.573Z,75.14
2023-04-01T21:45:50.017Z,74.84
2023-04-01T21:48:35.797Z,74.64
2023-04-01T21:51:35.715Z,74.83
2023-04-01T21:54:18.922Z,74.92
2023-04-01T21:57:01.408Z,74.58
2023-04-01T21:59:43.570Z,74.80
2023-04-01T22:02:11.599Z,74.91
2023-04-01T22:04:44.309Z,75.17
2023-04-01T22:07:22.533Z,75.35
2023-04-01T22:10:11.731Z,75.02
2023-04-01T22:12:48.126Z,75.02
2023-04-01T22:15:59.208Z,75.34
2023-04-01T22:18:30.796Z,75.29
2023-04-01T22:21:06.320Z,75.34
2023-04-01T22:23:51.649Z,75.37
2023-04-01T22:26:34.069Z,75.36
2023-04-01T22:29:37.018Z,75.60
2023-04-01T22:32:39.740Z,75.96
2023-04-01T22:35:10.661Z,76.20
2023-04-01T22:37:41.160Z,76.32
2023-04-01T22:40:27.298Z,76.48
2023-04-01T22:43:02.464Z,76.81
2023-04-01T22:45:53.803Z,77.55
2023-04-01T22:48:40.523Z,77.99
2023-04-01T22:51:56.542Z,78.09
2023-04-01T22:54:35.029Z,78.37
2023-04-01T22:57:10.083Z,78.91
2023-04-01T22:59:40.701Z,79.18
2023-04-01T23:02:15.845Z,79.44
2023-04-01T23:04:44.840Z,79.57
2023-04-01T23:07:54.077Z,79.91
2023-04-01T23:10:31.274Z,80.32
2023-04-01T23:13:01.419Z,80.34
2023-04-01T23:15:29.784Z,80.28
2023-04-01T23:18:13.773Z,80.43
2023-04-01T23:20:51.316Z,80.83
2023-04-01T23:23:40.965Z,81.10
2023-04-01T23:26:33.561Z,81.29
2023-04-01T23:29:00.977Z,81.67
2023-04-01T23:31:34.458Z,81.84
2023-04-01T23:34:19.380Z,81.88
2023-04-01T23:36:56.537Z,82.35
2023-04-01T23:39:29.741Z,82.06
2023-04-01T23:42:00.984Z,82.35
2023-04-01T23:44:29.611Z,82.75
2023-04-01T23:46:58.269Z,82.82
2023-04-01T23:49:36.888Z,83.14
2023-04-01T23:52:10.600Z,82.99
2023-04-01T23:55:14.607Z,83.11
2023-04-01T23:57:42.162Z,82.95
